Detall de PIREP

Printer-friendly versionPDF version

[2014/05/26 15:19:00]
Flight IATA:CT2102
Pilot Number:042
Company ICAO:CAT
Aircraft Type:F100/A
PAX:48
Aircraft Registration:PFJ
Departing Airport: LEVC
Destination Airport: LEAM
Alternate Airport:LEMG
Online: VATSIM
Route:NARGO UN860 RESTU G850 DOSEK
Flight Level:F250
No Slew and time accel
No pause
Crash detect
Detect pilot in Cockpit between each 30 and 45 minutes
15:19 Zero fuel Weight: 81825 Lbs, Fuel Weight: 22663 Lbs
15:19 VATSIM:LEVC 261500Z 08013KT 050V110 9999 FEW020 21/14 Q1017 NOSIG
15:19 VATSIM:LEAM 261500Z 19008KT 160V220 9999 FEW030 21/15 Q1016
15:22 Parking Brakes off
15:26 Take-off
15:26 Take off Weight: 103987 Lbs
15:26 Wind: 000º @ 000 Knots Heading: 115º
15:26 POS N39º 29´ 18´´ W000º 28´ 44´´
15:26 Gear Up: 180 Knots
15:26 Flaps:2 at 180 Knots
15:26 Flaps:1 at 189 Knots
15:26 Flaps:0 at 194 Knots
15:38 TOC
15:38 Fuel Weight: 20370 Lb
15:41Wind:270º@025 Knots Heading: 210º Ground Speed: 433 Knots Altitude 24993 ft
15:48 TOD
15:48 Fuel Weight: 19377 Lb
15:56 Wind:270º@021 Knots Heading: 165º Ground Speed: 253 Knots Altitude 8828 ft
15:57 Flaps:1 at 223 Knots
16:00 Flaps:2 at 181 Knots
16:01 Gear Down: 174 Knots
16:02 Flaps:3 at 166 Knots
16:04 TouchDown:Rate -82 ft/min Speed: 146 Knots
16:04 VATSIM:LEAM 261530Z 19008KT 160V230 9999 FEW030 22/14 Q1016
16:04 Land
16:04 Wind:000º@000 Knots
16:04 Heading: 253º
16:04 Flight Duration: 00:38
16:04 Landing Weight: 100372 Lbs
16:04 POS N36º 50´ 34´´ W002º 22´ 26´´
16:06 Parking brakes on
16:06 Block to Block Duration: 00:44
16:06 Final Fuel: 18399 Lbls
16:06 Spent Fuel: 4263 Lbls
16:06 Flight Length: 202 NM
16:06 TOD Land Length: 69 NM

Exportar CSV

Powered by Drupal - Modified by Danger4k